Time;durP1;ratioP1;P1;durP2;ratioP2;P2;SDS_P1;SDS_P2;PMS_P1;PMS_P2;Temp;Humidity;BMP_temperature;BMP_pressure;BME280_temperature;BME280_humidity;BME280_pressure;Samples;Min_cycle;Max_cycle;Signal;HPM_P1;HPM_P2
2021/10/27 00:00:54;;;;;;;13.97;10.10;;;5.90;99.90;;;;;;5049570;28;20940;-65
2021/10/27 00:03:21;;;;;;;10.17;9.10;;;5.80;99.90;;;;;;5049987;28;20446;-64
2021/10/27 00:05:48;;;;;;;9.47;8.47;;;5.80;99.90;;;;;;5049742;28;20464;-65
2021/10/27 00:08:15;;;;;;;12.90;9.20;;;5.80;99.90;;;;;;5049527;28;20448;-64
2021/10/27 00:10:43;;;;;;;11.43;10.20;;;5.90;99.90;;;;;;5049437;28;20829;-65
2021/10/27 00:13:10;;;;;;;10.83;9.40;;;5.90;99.90;;;;;;5047433;28;20506;-65
2021/10/27 00:15:38;;;;;;;12.33;10.17;;;6.00;99.90;;;;;;5049239;28;20471;-65
2021/10/27 00:18:05;;;;;;;31.17;16.70;;;6.10;99.90;;;;;;5049195;28;20444;-65
2021/10/27 00:20:32;;;;;;;25.63;14.50;;;6.30;99.90;;;;;;5049415;28;20444;-65
2021/10/27 00:22:59;;;;;;;65.43;18.10;;;6.50;99.90;;;;;;5049524;28;20436;-65
2021/10/27 00:25:26;;;;;;;49.70;17.80;;;6.60;99.90;;;;;;5049365;28;21002;-65
2021/10/27 00:27:52;;;;;;;48.53;19.10;;;6.60;99.90;;;;;;5048970;28;20448;-65
2021/10/27 00:30:19;;;;;;;33.73;17.27;;;6.80;99.90;;;;;;5049811;28;20448;-64
2021/10/27 00:32:48;;;;;;;82.63;22.63;;;6.80;99.90;;;;;;5049421;28;20483;-65
2021/10/27 00:35:15;;;;;;;70.00;22.10;;;6.90;99.90;;;;;;5049535;28;20480;-65
2021/10/27 00:37:41;;;;;;;48.00;19.47;;;7.00;99.90;;;;;;5049202;28;20448;-65
2021/10/27 00:40:09;;;;;;;79.03;22.90;;;7.00;99.90;;;;;;5049811;28;20447;-65
2021/10/27 00:42:36;;;;;;;35.30;19.53;;;7.10;99.90;;;;;;5049575;28;20454;-65
2021/10/27 00:45:04;;;;;;;93.17;24.40;;;7.20;99.90;;;;;;5049652;28;20464;-65
2021/10/27 00:47:31;;;;;;;56.87;19.93;;;7.20;99.90;;;;;;5049302;28;20450;-65
2021/10/27 00:49:59;;;;;;;91.93;19.97;;;7.20;99.90;;;;;;5049412;28;20444;-65
2021/10/27 00:52:26;;;;;;;92.73;24.27;;;7.30;99.90;;;;;;5049512;28;20443;-65
2021/10/27 00:54:53;;;;;;;38.90;19.10;;;7.40;99.90;;;;;;5049277;28;20483;-65
2021/10/27 00:57:23;;;;;;;74.00;21.83;;;7.40;99.90;;;;;;5049325;28;20835;-65
2021/10/27 00:59:51;;;;;;;48.60;20.30;;;7.50;99.90;;;;;;5049592;28;20472;-65
2021/10/27 01:02:18;;;;;;;175.70;27.97;;;7.60;99.90;;;;;;5049766;28;20454;-65
2021/10/27 01:04:47;;;;;;;81.83;23.40;;;7.60;99.90;;;;;;5049444;28;20483;-65
2021/10/27 01:07:16;;;;;;;42.63;19.30;;;7.70;99.90;;;;;;5049024;28;20452;-65
2021/10/27 01:09:43;;;;;;;64.67;23.30;;;7.70;99.90;;;;;;5049505;28;20456;-65
2021/10/27 01:12:11;;;;;;;46.83;19.83;;;7.70;99.90;;;;;;5049484;28;20444;-65
2021/10/27 01:14:39;;;;;;;47.17;18.33;;;7.70;99.90;;;;;;5049039;28;20881;-65
2021/10/27 01:17:07;;;;;;;34.57;17.47;;;7.60;99.90;;;;;;5052203;28;20458;-65
2021/10/27 01:19:45;;;;;;;45.70;17.17;;;7.60;99.90;;;;;;5052601;28;20555;-65
2021/10/27 01:22:12;;;;;;;31.77;15.40;;;7.40;99.90;;;;;;5052751;28;20455;-65
2021/10/27 01:24:39;;;;;;;41.30;16.13;;;7.30;99.90;;;;;;5052446;28;20841;-65
2021/10/27 01:27:06;;;;;;;21.93;14.80;;;7.30;99.90;;;;;;5052363;28;20444;-64
2021/10/27 01:29:33;;;;;;;30.70;15.30;;;7.20;99.90;;;;;;5052854;28;20444;-64
2021/10/27 01:32:00;;;;;;;71.93;18.70;;;7.20;99.90;;;;;;5053844;28;20452;-65
2021/10/27 01:34:27;;;;;;;57.30;18.27;;;7.20;99.90;;;;;;5052284;28;20583;-65
2021/10/27 01:36:55;;;;;;;71.43;20.40;;;7.10;99.90;;;;;;5052104;28;20440;-65
2021/10/27 01:39:23;;;;;;;33.20;15.67;;;7.00;99.90;;;;;;5052405;28;20444;-65
2021/10/27 01:41:50;;;;;;;38.60;19.20;;;7.00;99.90;;;;;;5052356;28;20440;-65
2021/10/27 01:44:17;;;;;;;26.07;16.30;;;7.00;99.90;;;;;;5051998;28;20455;-65
2021/10/27 01:46:44;;;;;;;20.83;14.97;;;7.00;99.90;;;;;;5052032;28;20459;-65
2021/10/27 01:49:12;;;;;;;27.03;16.10;;;7.00;99.90;;;;;;5052274;28;20452;-64
2021/10/27 01:51:40;;;;;;;40.03;16.40;;;7.20;99.90;;;;;;5052242;28;20534;-64
2021/10/27 01:54:09;;;;;;;18.80;14.97;;;7.20;99.90;;;;;;5052128;28;20484;-64
2021/10/27 01:56:36;;;;;;;18.27;13.30;;;7.20;99.90;;;;;;5051964;28;20879;-65
2021/10/27 01:59:03;;;;;;;27.03;13.80;;;7.20;99.90;;;;;;5052091;28;20451;-65
2021/10/27 02:01:30;;;;;;;21.13;13.13;;;7.20;99.90;;;;;;5052325;28;20824;-64
2021/10/27 02:03:57;;;;;;;25.90;14.07;;;7.20;99.90;;;;;;5052287;28;20440;-65
2021/10/27 02:06:24;;;;;;;20.33;13.17;;;7.10;99.90;;;;;;5051676;28;20551;-65
2021/10/27 02:08:50;;;;;;;18.20;12.30;;;7.10;99.90;;;;;;5051903;28;20459;-65
2021/10/27 02:11:20;;;;;;;22.13;12.90;;;7.10;99.90;;;;;;5051920;28;20448;-65
2021/10/27 02:13:46;;;;;;;28.60;13.70;;;7.20;99.90;;;;;;5051647;28;20487;-65
2021/10/27 02:16:13;;;;;;;47.53;14.93;;;7.20;99.90;;;;;;5051992;28;20837;-65
2021/10/27 02:18:40;;;;;;;15.70;12.10;;;7.20;99.90;;;;;;5051619;28;20447;-65
2021/10/27 02:21:07;;;;;;;30.57;13.90;;;7.20;99.90;;;;;;5051823;28;20490;-65
2021/10/27 02:23:34;;;;;;;20.00;13.73;;;7.20;99.90;;;;;;5051583;28;20462;-65
2021/10/27 02:26:01;;;;;;;21.60;13.80;;;7.20;99.90;;;;;;5051376;28;20479;-65
2021/10/27 02:28:29;;;;;;;18.47;16.07;;;7.20;99.90;;;;;;5050706;28;20452;-65
2021/10/27 02:30:56;;;;;;;31.87;18.13;;;7.30;99.90;;;;;;5051799;28;20452;-65
2021/10/27 02:33:23;;;;;;;35.27;17.43;;;7.40;99.90;;;;;;5051107;28;20444;-65
2021/10/27 02:35:50;;;;;;;20.50;14.77;;;7.40;99.90;;;;;;5051590;28;20560;-65
2021/10/27 02:38:17;;;;;;;18.67;13.43;;;7.50;99.90;;;;;;5051294;28;21006;-65
2021/10/27 02:40:44;;;;;;;17.87;14.37;;;7.50;99.90;;;;;;5051273;28;20534;-65
2021/10/27 02:43:11;;;;;;;25.60;12.73;;;7.50;99.90;;;;;;5051365;28;20451;-65
2021/10/27 02:45:40;;;;;;;17.30;10.23;;;7.50;99.90;;;;;;5051329;28;20468;-65
2021/10/27 02:48:07;;;;;;;21.53;12.00;;;7.50;99.90;;;;;;5050876;28;20859;-69
2021/10/27 02:50:33;;;;;;;19.90;11.30;;;7.40;99.90;;;;;;5051307;28;20440;-65
2021/10/27 02:53:00;;;;;;;18.10;14.20;;;7.50;99.90;;;;;;5051118;28;20436;-64
2021/10/27 02:55:30;;;;;;;25.87;13.73;;;7.50;99.90;;;;;;5051078;28;20563;-65
2021/10/27 02:57:57;;;;;;;36.57;14.80;;;7.60;99.90;;;;;;5050838;28;20836;-65
2021/10/27 03:00:24;;;;;;;25.43;15.20;;;7.50;99.90;;;;;;5050903;28;20453;-65
2021/10/27 03:02:52;;;;;;;26.47;13.47;;;7.60;99.90;;;;;;5051011;28;20444;-65
2021/10/27 03:05:20;;;;;;;31.03;14.80;;;7.60;99.90;;;;;;5050833;28;20467;-65
2021/10/27 03:07:47;;;;;;;27.03;14.40;;;7.60;99.90;;;;;;5050320;28;20823;-65
2021/10/27 03:10:14;;;;;;;44.03;15.40;;;7.60;99.90;;;;;;5050845;28;20444;-65
2021/10/27 03:12:41;;;;;;;21.87;14.37;;;7.70;99.90;;;;;;5050831;28;20494;-64
2021/10/27 03:15:09;;;;;;;22.23;15.00;;;7.60;99.90;;;;;;5050484;28;20479;-65
2021/10/27 03:17:36;;;;;;;38.60;13.83;;;7.60;99.90;;;;;;5050620;28;20530;-65
2021/10/27 03:20:05;;;;;;;36.17;14.37;;;7.60;99.90;;;;;;5050434;28;20452;-65
2021/10/27 03:22:33;;;;;;;19.93;12.70;;;7.40;99.90;;;;;;5050934;28;20450;-65
2021/10/27 03:24:59;;;;;;;15.30;11.67;;;7.40;99.90;;;;;;5050955;28;20809;-64
2021/10/27 03:27:26;;;;;;;19.90;12.60;;;7.30;99.90;;;;;;5050428;28;20444;-65
2021/10/27 03:29:53;;;;;;;50.63;14.77;;;7.30;99.90;;;;;;5050675;28;20474;-65
2021/10/27 03:32:20;;;;;;;42.53;17.00;;;7.30;99.90;;;;;;5050519;28;20448;-65
2021/10/27 03:34:48;;;;;;;34.30;15.70;;;7.20;99.90;;;;;;5050120;28;21112;-65
2021/10/27 03:37:17;;;;;;;26.80;14.67;;;7.20;99.90;;;;;;5050339;28;20448;-64
2021/10/27 03:39:43;;;;;;;36.30;15.83;;;7.30;99.90;;;;;;5050220;28;20448;-65
2021/10/27 03:42:10;;;;;;;25.13;14.80;;;7.30;99.90;;;;;;5050589;28;20565;-65
2021/10/27 03:44:37;;;;;;;38.00;18.50;;;7.30;99.90;;;;;;5050609;28;20679;-65
2021/10/27 03:47:04;;;;;;;26.03;16.30;;;7.20;99.90;;;;;;5049849;28;20448;-64
2021/10/27 03:49:31;;;;;;;43.53;20.27;;;7.20;99.90;;;;;;5050167;28;21108;-65
2021/10/27 03:51:59;;;;;;;32.83;18.00;;;7.20;99.90;;;;;;5050300;28;20451;-65
2021/10/27 03:54:27;;;;;;;28.70;13.17;;;7.20;99.90;;;;;;5049868;28;20487;-64
2021/10/27 03:56:54;;;;;;;18.27;12.10;;;7.20;99.90;;;;;;5049902;28;20474;-65
2021/10/27 03:59:20;;;;;;;21.07;12.27;;;7.10;99.90;;;;;;5050112;28;20447;-65
2021/10/27 04:01:47;;;;;;;22.33;14.30;;;7.00;99.90;;;;;;5049806;28;20813;-65
2021/10/27 04:04:14;;;;;;;19.43;15.10;;;6.90;99.90;;;;;;5050224;28;20444;-65
2021/10/27 04:06:41;;;;;;;30.80;15.47;;;6.90;99.90;;;;;;5049501;28;20444;-65
2021/10/27 04:09:08;;;;;;;42.27;16.90;;;7.00;99.90;;;;;;5050109;28;20474;-65
2021/10/27 04:11:36;;;;;;;26.20;15.40;;;7.00;99.90;;;;;;5049880;28;20454;-64
2021/10/27 04:14:03;;;;;;;25.70;16.07;;;7.10;99.90;;;;;;5049732;28;20547;-65
2021/10/27 04:16:30;;;;;;;24.33;15.67;;;7.10;99.90;;;;;;5049544;28;20456;-65
2021/10/27 04:18:57;;;;;;;27.53;15.33;;;7.10;99.90;;;;;;5050261;28;20437;-64
2021/10/27 04:21:24;;;;;;;26.07;16.07;;;7.10;99.90;;;;;;5050154;28;21035;-65
2021/10/27 04:23:51;;;;;;;43.00;18.10;;;7.10;99.90;;;;;;5049832;28;20448;-64
2021/10/27 04:26:18;;;;;;;47.87;19.70;;;7.10;99.90;;;;;;5049777;28;20464;-64
2021/10/27 04:28:46;;;;;;;33.57;20.73;;;7.10;99.90;;;;;;5049615;28;20447;-65
2021/10/27 04:31:13;;;;;;;38.13;20.27;;;7.20;99.90;;;;;;5049677;28;20444;-65
2021/10/27 04:33:40;;;;;;;28.50;19.13;;;7.10;99.90;;;;;;5049938;28;20439;-64
2021/10/27 04:36:06;;;;;;;33.70;16.80;;;7.10;99.90;;;;;;5049904;28;21022;-64
2021/10/27 04:38:33;;;;;;;66.27;18.33;;;7.10;99.90;;;;;;5049493;28;20452;-64
2021/10/27 04:41:00;;;;;;;39.03;14.67;;;7.00;99.90;;;;;;5049760;28;20837;-64
2021/10/27 04:43:27;;;;;;;20.53;13.00;;;6.90;99.90;;;;;;5049935;28;20886;-69
2021/10/27 04:45:55;;;;;;;35.83;14.40;;;6.80;99.90;;;;;;5049661;28;20467;-64
2021/10/27 04:48:22;;;;;;;27.43;14.43;;;6.80;99.90;;;;;;5049377;28;20958;-64
2021/10/27 04:50:49;;;;;;;25.73;14.83;;;6.80;99.90;;;;;;5051540;28;20440;-64
2021/10/27 04:53:17;;;;;;;22.93;14.00;;;6.90;99.90;;;;;;5053619;28;21104;-65
2021/10/27 04:55:45;;;;;;;35.57;15.03;;;6.90;99.90;;;;;;5053036;28;20491;-65
2021/10/27 04:58:12;;;;;;;58.90;17.93;;;6.90;99.90;;;;;;5052759;28;20966;-65
2021/10/27 05:00:39;;;;;;;24.10;16.10;;;6.90;99.90;;;;;;5052813;28;21096;-66
2021/10/27 05:03:08;;;;;;;35.63;17.60;;;6.80;99.90;;;;;;5056880;28;20447;-64
2021/10/27 05:05:41;;;;;;;33.43;15.63;;;6.90;99.90;;;;;;5055425;28;20542;-66
2021/10/27 05:08:08;;;;;;;37.50;16.33;;;6.90;99.90;;;;;;5058829;28;20460;-66
2021/10/27 05:10:35;;;;;;;20.67;15.03;;;6.90;99.90;;;;;;5049395;28;20457;-68
2021/10/27 05:13:02;;;;;;;23.10;14.70;;;7.00;99.90;;;;;;5048595;28;20439;-65
2021/10/27 05:15:29;;;;;;;21.70;15.90;;;7.00;99.90;;;;;;5042463;28;20491;-65
2021/10/27 05:17:56;;;;;;;23.90;15.10;;;7.00;99.90;;;;;;5041654;28;20920;-65
2021/10/27 05:20:24;;;;;;;20.10;16.10;;;7.10;99.90;;;;;;5043958;28;20991;-64
2021/10/27 05:22:51;;;;;;;20.73;14.33;;;7.10;99.90;;;;;;5035651;28;20456;-65
2021/10/27 05:25:17;;;;;;;17.37;14.90;;;7.10;99.90;;;;;;5032024;28;20468;-65
2021/10/27 05:27:44;;;;;;;16.23;14.63;;;7.00;99.90;;;;;;5032281;28;20484;-65
2021/10/27 05:30:11;;;;;;;17.50;15.47;;;7.10;99.90;;;;;;5032823;28;20535;-65
2021/10/27 05:32:38;;;;;;;18.83;15.27;;;7.10;99.90;;;;;;5032812;28;20836;-65
2021/10/27 05:35:06;;;;;;;18.83;14.20;;;7.00;99.90;;;;;;5032406;28;20546;-65
2021/10/27 05:37:34;;;;;;;17.30;14.07;;;7.00;99.90;;;;;;5032030;28;20833;-65
2021/10/27 05:40:01;;;;;;;20.57;14.70;;;7.00;99.90;;;;;;5032835;28;20459;-66
2021/10/27 05:42:29;;;;;;;21.70;14.30;;;7.00;99.90;;;;;;5032511;28;20865;-65
2021/10/27 05:44:57;;;;;;;17.67;14.70;;;7.00;99.90;;;;;;5032312;28;20461;-64
2021/10/27 05:47:25;;;;;;;18.47;15.00;;;7.00;99.90;;;;;;5031993;28;20484;-64
2021/10/27 05:49:54;;;;;;;17.67;15.07;;;7.00;99.90;;;;;;5032304;28;20449;-64
2021/10/27 05:58:00;;;;;;;16.93;13.50;;;7.00;99.90;;;;;;5018799;28;20441;-65
2021/10/27 06:00:27;;;;;;;15.83;12.97;;;7.00;99.90;;;;;;5032342;28;21053;-65
2021/10/27 06:02:54;;;;;;;15.90;14.20;;;7.00;99.90;;;;;;5032278;28;20887;-67
2021/10/27 06:05:21;;;;;;;15.63;13.93;;;7.00;99.90;;;;;;5032562;28;20469;-65
2021/10/27 06:07:48;;;;;;;17.20;13.30;;;7.00;99.90;;;;;;5031819;28;20480;-65
2021/10/27 06:10:20;;;;;;;14.33;12.83;;;7.00;99.90;;;;;;5032244;28;20444;-65
2021/10/27 06:12:48;;;;;;;17.23;14.37;;;6.90;99.90;;;;;;5031867;28;20962;-65
2021/10/27 06:15:16;;;;;;;15.87;14.20;;;7.00;99.90;;;;;;5032230;28;20513;-64
2021/10/27 06:17:43;;;;;;;17.00;12.50;;;7.00;99.90;;;;;;5051529;28;20513;-65
2021/10/27 06:20:11;;;;;;;17.57;13.80;;;6.90;99.90;;;;;;5051786;28;20937;-64
2021/10/27 06:22:38;;;;;;;17.43;14.27;;;7.00;99.90;;;;;;5051666;28;20448;-64
2021/10/27 06:25:08;;;;;;;18.73;14.10;;;7.00;99.90;;;;;;5051628;28;20463;-65
2021/10/27 06:27:37;;;;;;;15.67;13.70;;;7.00;99.90;;;;;;5051253;28;20966;-65
2021/10/27 06:30:08;;;;;;;14.97;13.20;;;7.00;99.90;;;;;;5051860;28;20456;-65
2021/10/27 06:32:39;;;;;;;17.03;15.00;;;6.90;99.90;;;;;;5051659;28;20444;-65
2021/10/27 06:35:11;;;;;;;17.00;14.80;;;6.90;99.90;;;;;;5051299;28;20496;-64
2021/10/27 06:37:54;;;;;;;15.33;13.13;;;6.90;99.90;;;;;;5050965;28;20539;-65
2021/10/27 06:46:26;;;;;;;14.13;12.57;;;6.90;99.90;;;;;;5050998;28;20969;-64
2021/10/27 06:48:53;;;;;;;19.40;13.53;;;7.00;99.90;;;;;;5051190;28;20458;-65
2021/10/27 06:51:20;;;;;;;15.07;12.93;;;7.00;99.90;;;;;;5051133;28;20464;-65
2021/10/27 06:53:47;;;;;;;17.83;15.57;;;7.10;99.90;;;;;;5050873;28;20445;-65
2021/10/27 06:56:15;;;;;;;15.90;14.03;;;7.00;99.90;;;;;;5050610;28;20533;-65
2021/10/27 06:58:48;;;;;;;18.43;14.33;;;7.00;99.90;;;;;;5050690;28;20528;-65
2021/10/27 07:01:19;;;;;;;15.57;13.97;;;7.10;99.90;;;;;;5051049;28;20448;-64
2021/10/27 07:06:42;;;;;;;20.77;14.00;;;7.10;99.90;;;;;;5027256;28;20444;-64
2021/10/27 07:15:01;;;;;;;14.83;13.23;;;7.20;99.90;;;;;;5049887;28;20530;-65
2021/10/27 07:17:28;;;;;;;15.67;13.50;;;7.20;99.90;;;;;;5050234;28;20866;-65
2021/10/27 07:19:55;;;;;;;20.67;16.07;;;7.30;99.90;;;;;;5050241;28;20911;-65
2021/10/27 07:22:21;;;;;;;25.13;16.37;;;7.40;99.90;;;;;;5050484;28;20521;-65
2021/10/27 07:24:48;;;;;;;15.97;14.30;;;7.40;99.90;;;;;;5050177;28;20492;-65
2021/10/27 07:27:15;;;;;;;18.53;14.90;;;7.50;99.90;;;;;;5049917;28;20448;-65
2021/10/27 07:29:44;;;;;;;16.60;14.80;;;7.60;99.90;;;;;;5050286;28;20531;-65
2021/10/27 07:32:14;;;;;;;18.43;15.40;;;7.60;99.90;;;;;;5050041;28;20495;-65
2021/10/27 07:34:45;;;;;;;20.73;15.43;;;7.70;99.90;;;;;;5049839;28;20886;-65
2021/10/27 07:40:06;;;;;;;20.03;14.80;;;7.80;99.90;;;;;;5050248;28;20420;-65
2021/10/27 07:42:34;;;;;;;17.63;15.77;;;7.90;99.90;;;;;;5050073;28;20444;-65
2021/10/27 07:45:02;;;;;;;18.80;15.20;;;8.10;99.90;;;;;;5050329;28;20658;-65
2021/10/27 07:47:30;;;;;;;17.57;14.10;;;8.10;99.90;;;;;;5050145;28;20451;-65
2021/10/27 07:49:57;;;;;;;19.10;16.03;;;8.30;99.90;;;;;;5050171;28;20864;-65
2021/10/27 07:52:23;;;;;;;18.97;14.87;;;8.30;99.90;;;;;;5050135;28;20529;-66
2021/10/27 07:54:50;;;;;;;13.80;12.30;;;8.40;99.90;;;;;;5049723;28;20467;-65
2021/10/27 07:57:17;;;;;;;15.70;13.80;;;8.40;99.90;;;;;;5049922;28;20452;-65
2021/10/27 07:59:44;;;;;;;15.53;13.27;;;8.50;99.90;;;;;;5049955;28;20447;-65
2021/10/27 08:02:12;;;;;;;14.47;12.97;;;8.50;99.90;;;;;;5049938;28;20447;-66
2021/10/27 08:04:39;;;;;;;14.27;12.67;;;8.50;99.90;;;;;;5049731;28;21181;-66
2021/10/27 08:07:06;;;;;;;14.13;12.50;;;8.60;99.90;;;;;;5049529;28;20547;-66
2021/10/27 08:09:34;;;;;;;15.10;12.63;;;8.70;99.90;;;;;;5049715;28;20439;-65
2021/10/27 08:12:00;;;;;;;13.07;11.27;;;8.80;99.90;;;;;;5049575;28;20451;-65
2021/10/27 08:14:27;;;;;;;15.03;12.83;;;8.90;99.90;;;;;;5049699;28;20450;-66
2021/10/27 08:16:54;;;;;;;15.20;13.33;;;8.90;99.90;;;;;;5049354;28;20475;-65
2021/10/27 08:19:23;;;;;;;20.33;14.77;;;9.00;99.90;;;;;;5049572;28;20444;-65
2021/10/27 08:21:50;;;;;;;17.07;13.57;;;9.00;99.90;;;;;;5049593;28;20460;-65
2021/10/27 08:24:22;;;;;;;13.53;11.90;;;9.10;99.90;;;;;;5049301;28;20444;-65
2021/10/27 08:26:54;;;;;;;15.70;14.20;;;9.20;99.90;;;;;;5052924;28;20455;-65
2021/10/27 08:29:26;;;;;;;17.30;12.40;;;9.20;99.90;;;;;;5053843;28;20466;-66
2021/10/27 08:31:57;;;;;;;15.60;12.20;;;9.30;99.90;;;;;;5053643;28;20867;-66
2021/10/27 08:34:36;;;;;;;13.50;12.20;;;9.40;99.90;;;;;;5053619;28;20459;-66
2021/10/27 08:37:03;;;;;;;13.77;12.37;;;9.50;99.90;;;;;;5053524;28;20467;-65
2021/10/27 08:39:30;;;;;;;13.73;12.33;;;9.70;99.90;;;;;;5053745;28;20469;-65
2021/10/27 08:41:56;;;;;;;13.53;11.37;;;9.80;99.90;;;;;;5053575;28;20979;-66
2021/10/27 08:44:23;;;;;;;15.30;13.13;;;9.90;99.90;;;;;;5053535;28;20444;-65
2021/10/27 08:46:51;;;;;;;12.83;11.53;;;10.10;99.90;;;;;;5053705;28;20440;-65
2021/10/27 08:49:19;;;;;;;13.63;11.63;;;10.20;99.90;;;;;;5053452;28;20824;-66
2021/10/27 08:51:50;;;;;;;15.20;12.87;;;10.20;99.90;;;;;;5053740;28;20443;-66
2021/10/27 08:54:18;;;;;;;12.60;11.30;;;10.30;99.90;;;;;;5053661;28;21261;-66
2021/10/27 08:56:46;;;;;;;12.00;10.80;;;10.40;99.90;;;;;;5053146;28;20479;-67
2021/10/27 08:59:17;;;;;;;17.90;11.33;;;10.50;99.90;;;;;;5053464;28;20448;-65
2021/10/27 09:01:54;;;;;;;12.17;10.53;;;10.50;99.90;;;;;;5053124;28;20447;-65
2021/10/27 09:04:40;;;;;;;12.43;10.40;;;10.60;99.90;;;;;;5053295;28;20448;-66
2021/10/27 09:07:25;;;;;;;13.10;10.70;;;10.70;99.90;;;;;;5052905;28;20501;-66
2021/10/27 09:15:49;;;;;;;11.37;10.10;;;11.20;99.90;;;;;;5052584;28;20454;-65
2021/10/27 09:44:29;;;;;;;12.00;8.70;;;13.80;99.90;;;;;;5021277;28;20436;-66
2021/10/27 10:04:07;;;;;;;9.13;8.23;;;15.50;99.90;;;;;;5051836;28;20453;-66
2021/10/27 10:06:37;;;;;;;9.17;8.10;;;15.90;99.90;;;;;;5051204;28;20973;-66
2021/10/27 10:09:05;;;;;;;10.20;9.07;;;16.10;99.90;;;;;;5051794;28;20450;-66
2021/10/27 10:11:33;;;;;;;12.83;8.83;;;16.10;99.90;;;;;;5051783;28;20517;-66
2021/10/27 10:14:04;;;;;;;15.23;8.60;;;16.40;99.90;;;;;;5052057;28;20458;-67
2021/10/27 10:16:33;;;;;;;11.50;8.53;;;16.90;99.90;;;;;;5051201;28;20482;-65
2021/10/27 10:19:06;;;;;;;8.70;7.50;;;17.30;99.90;;;;;;5051455;28;20861;-65
2021/10/27 10:21:36;;;;;;;11.30;8.93;;;17.50;99.90;;;;;;5051630;28;20452;-67
2021/10/27 10:24:37;;;;;;;7.70;6.90;;;18.20;99.90;;;;;;5051574;28;20480;-67
2021/10/27 10:27:10;;;;;;;7.43;6.73;;;18.90;99.90;;;;;;5051301;28;20444;-66
2021/10/27 10:29:55;;;;;;;7.20;6.50;;;19.70;99.90;;;;;;5051317;28;21267;-66
2021/10/27 10:32:40;;;;;;;6.97;5.80;;;20.20;99.90;;;;;;5051099;28;20565;-66
2021/10/27 10:35:14;;;;;;;10.60;6.80;;;20.60;99.90;;;;;;5051425;28;20483;-66
2021/10/27 10:37:47;;;;;;;7.60;6.20;;;20.50;99.90;;;;;;5050659;28;20597;-66
2021/10/27 10:40:49;;;;;;;6.00;5.10;;;20.50;99.90;;;;;;5051424;28;20474;-66
2021/10/27 10:43:59;;;;;;;7.10;5.23;;;21.00;99.90;;;;;;5008751;28;20460;-66
2021/10/27 10:58:23;;;;;;;6.20;5.47;;;22.10;98.60;;;;;;5050618;28;20436;-65
2021/10/27 11:01:20;;;;;;;7.03;5.73;;;21.50;99.20;;;;;;5050637;28;20819;-66
2021/10/27 11:24:01;;;;;;;7.40;5.40;;;22.30;97.10;;;;;;5050558;28;20562;-66
2021/10/27 11:26:55;;;;;;;5.87;5.13;;;22.90;96.80;;;;;;5050280;28;20460;-66
2021/10/27 11:38:12;;;;;;;5.47;3.70;;;21.80;96.70;;;;;;5049940;28;20470;-65
2021/10/27 11:40:41;;;;;;;5.50;3.80;;;22.30;95.70;;;;;;5050499;28;20521;-65
2021/10/27 11:43:17;;;;;;;6.17;3.60;;;21.80;95.90;;;;;;5050131;28;21010;-65
2021/10/27 11:45:57;;;;;;;5.30;3.77;;;21.80;96.10;;;;;;5050198;28;20548;-65
2021/10/27 11:48:42;;;;;;;5.00;3.57;;;21.20;96.60;;;;;;5049659;28;21203;-65
2021/10/27 11:51:10;;;;;;;4.73;3.03;;;20.30;97.60;;;;;;5050163;28;20529;-65
2021/10/27 11:53:38;;;;;;;5.70;3.90;;;19.60;98.20;;;;;;5049774;28;20440;-64
2021/10/27 11:56:14;;;;;;;6.17;3.67;;;19.10;99.10;;;;;;5049664;28;20492;-65
2021/10/27 11:58:42;;;;;;;5.77;3.90;;;18.60;99.90;;;;;;5049552;28;20526;-65
2021/10/27 12:01:13;;;;;;;3.60;2.77;;;18.40;99.90;;;;;;5049525;28;20517;-66
2021/10/27 12:03:42;;;;;;;5.33;3.07;;;17.90;99.90;;;;;;5051083;28;21123;-66
2021/10/27 12:06:29;;;;;;;5.33;3.60;;;17.60;99.90;;;;;;5053433;28;20460;-66
2021/10/27 12:09:07;;;;;;;5.30;3.20;;;17.40;99.90;;;;;;5047045;28;20428;-66
2021/10/27 12:11:49;;;;;;;5.60;3.20;;;17.20;99.90;;;;;;5049745;28;20531;-65
2021/10/27 12:14:20;;;;;;;9.20;4.20;;;17.10;99.90;;;;;;5049634;28;21097;-65
2021/10/27 12:17:12;;;;;;;7.90;3.50;;;17.10;99.90;;;;;;5049257;28;20475;-65
2021/10/27 12:19:39;;;;;;;8.73;5.50;;;17.10;99.90;;;;;;5049495;28;21013;-65
2021/10/27 12:22:09;;;;;;;12.20;5.60;;;17.00;99.90;;;;;;5048863;28;20455;-65
2021/10/27 12:24:39;;;;;;;12.47;5.33;;;16.60;99.90;;;;;;5049558;28;20471;-65
2021/10/27 12:27:21;;;;;;;8.10;5.00;;;16.40;99.90;;;;;;5049179;28;20444;-65
2021/10/27 12:29:53;;;;;;;5.97;5.10;;;16.30;99.90;;;;;;5049603;28;20489;-65
2021/10/27 12:32:20;;;;;;;6.40;4.27;;;16.20;99.90;;;;;;5049470;28;20447;-65
2021/10/27 12:34:49;;;;;;;7.00;4.63;;;16.20;99.90;;;;;;5049371;28;20476;-66
2021/10/27 12:37:33;;;;;;;6.70;4.73;;;16.10;99.90;;;;;;5049002;28;20491;-65
2021/10/27 12:40:17;;;;;;;5.53;4.73;;;16.00;99.90;;;;;;5049691;28;20439;-65
2021/10/27 12:42:46;;;;;;;5.93;4.57;;;16.10;99.90;;;;;;5049538;28;20938;-65
2021/10/27 12:45:13;;;;;;;6.70;5.60;;;16.10;99.90;;;;;;5049460;28;20463;-65
2021/10/27 12:47:40;;;;;;;7.50;4.20;;;16.20;99.90;;;;;;5049053;28;20436;-65
2021/10/27 12:50:13;;;;;;;6.83;4.33;;;16.30;99.90;;;;;;5049178;28;20447;-65
2021/10/27 12:52:45;;;;;;;7.10;3.77;;;16.30;99.90;;;;;;5049241;28;20445;-65
2021/10/27 12:55:29;;;;;;;5.47;3.43;;;16.40;99.90;;;;;;5049126;28;20502;-65
2021/10/27 12:58:00;;;;;;;8.10;4.47;;;16.40;99.90;;;;;;5045539;28;20946;-65
2021/10/27 13:00:32;;;;;;;5.77;3.43;;;16.40;99.90;;;;;;5049382;28;20458;-65
2021/10/27 13:03:15;;;;;;;4.90;3.10;;;16.40;99.90;;;;;;5049246;28;20455;-69
2021/10/27 13:05:47;;;;;;;5.13;3.20;;;16.30;99.90;;;;;;5049057;28;20491;-67
2021/10/27 13:11:20;;;;;;;4.20;3.43;;;16.20;99.90;;;;;;5033812;28;20428;-67
2021/10/27 13:13:57;;;;;;;4.40;3.03;;;16.10;99.90;;;;;;5052652;28;20479;-67
2021/10/27 13:22:37;;;;;;;4.10;1.90;;;16.10;99.90;;;;;;5011616;28;20526;-69
2021/10/27 13:30:36;;;;;;;3.67;2.30;;;16.10;99.90;;;;;;5047577;28;20551;-68
2021/10/27 13:33:08;;;;;;;4.73;2.43;;;15.90;99.90;;;;;;5047867;28;20479;-68
2021/10/27 13:35:36;;;;;;;3.60;2.10;;;16.00;99.90;;;;;;5069037;22;20506;-65
2021/10/27 13:38:03;;;;;;;3.60;2.30;;;15.90;99.90;;;;;;5046439;28;21085;-65
2021/10/27 13:40:31;;;;;;;4.33;2.83;;;15.90;99.90;;;;;;5046799;28;20452;-65
2021/10/27 13:43:01;;;;;;;7.87;2.80;;;15.90;99.90;;;;;;5046985;28;20452;-67
2021/10/27 13:45:33;;;;;;;3.23;2.00;;;15.90;99.90;;;;;;5042231;28;20503;-66
2021/10/27 13:48:07;;;;;;;3.80;2.23;;;16.00;99.90;;;;;;5044270;28;20659;-66
2021/10/27 14:07:11;;;;;;;2.60;1.30;;;16.20;99.90;;;;;;5022808;28;20934;-65
2021/10/27 14:09:42;;;;;;;2.73;1.33;;;16.30;99.90;;;;;;5044562;28;20514;-65
2021/10/27 14:12:20;;;;;;;6.00;2.00;;;16.20;99.90;;;;;;5045898;28;20448;-63
2021/10/27 14:14:56;;;;;;;2.83;1.30;;;16.20;99.90;;;;;;5045688;28;20468;-64
2021/10/27 14:17:56;;;;;;;2.47;1.10;;;16.20;99.90;;;;;;5045828;28;20542;-65
2021/10/27 14:40:10;;;;;;;3.30;2.33;;;16.10;99.90;;;;;;5020140;28;20879;-65
2021/10/27 14:48:23;;;;;;;3.07;2.23;;;16.00;99.90;;;;;;5021367;28;20470;-65
2021/10/27 14:51:06;;;;;;;3.90;2.13;;;15.90;99.90;;;;;;5020068;28;20432;-65
2021/10/27 14:59:21;;;;;;;4.80;3.10;;;15.80;99.90;;;;;;5021361;28;20511;-64
2021/10/27 15:21:15;;;;;;;3.77;2.63;;;15.70;99.90;;;;;;5014946;28;20933;-65
2021/10/27 15:35:16;;;;;;;7.03;2.97;;;15.20;99.90;;;;;;5020132;28;21247;-65
2021/10/27 15:43:26;;;;;;;5.70;2.73;;;15.00;99.90;;;;;;5024844;28;20441;-65
2021/10/27 15:51:24;;;;;;;7.27;3.47;;;14.70;99.90;;;;;;5015224;28;20425;-65
2021/10/27 15:53:53;;;;;;;6.17;3.30;;;14.60;99.90;;;;;;5009099;28;20441;-65
2021/10/27 15:56:20;;;;;;;4.87;3.47;;;14.40;99.90;;;;;;5019877;28;20456;-65
2021/10/27 15:58:47;;;;;;;5.77;3.67;;;14.30;99.90;;;;;;5027884;28;20484;-64
2021/10/27 16:01:15;;;;;;;4.47;3.53;;;14.20;99.90;;;;;;5029491;28;20449;-65
2021/10/27 16:03:42;;;;;;;4.97;3.20;;;14.10;99.90;;;;;;5028358;28;20440;-65
2021/10/27 16:06:09;;;;;;;8.00;3.23;;;14.00;99.90;;;;;;5027369;28;20966;-64
2021/10/27 16:08:37;;;;;;;4.77;2.63;;;13.80;99.90;;;;;;5027423;28;20532;-65
2021/10/27 16:11:04;;;;;;;5.60;2.50;;;13.60;99.90;;;;;;5027412;28;20441;-65
2021/10/27 16:13:32;;;;;;;4.07;2.60;;;13.50;99.90;;;;;;5027558;28;20476;-65
2021/10/27 16:16:00;;;;;;;3.47;2.30;;;13.30;99.90;;;;;;5027582;28;20460;-64
2021/10/27 16:18:30;;;;;;;6.57;2.97;;;13.20;99.90;;;;;;5027685;28;20596;-64
2021/10/27 16:20:58;;;;;;;4.50;2.77;;;13.10;99.90;;;;;;5027705;28;20436;-64
2021/10/27 16:23:26;;;;;;;5.23;2.77;;;13.10;99.90;;;;;;5024379;28;20445;-64
2021/10/27 16:25:54;;;;;;;5.10;3.20;;;13.00;99.90;;;;;;5024634;28;20571;-65
2021/10/27 16:28:23;;;;;;;6.00;3.07;;;12.90;99.90;;;;;;5025935;28;20433;-65
2021/10/27 16:30:50;;;;;;;4.43;3.30;;;12.70;99.90;;;;;;5025224;28;20437;-64